Terminal Aerodrome Forecast
Issued by NWS Mobile, AL

Home | Current Version | Previous Version | Text Only | Print | Product List | Glossary On
Versions: 1 2 3 4 5 6 7 8 9 10 11 12 13 14 15 16
000
FTUS44 KMOB 181700
TAFPNS
TAF
KPNS 181721Z 1818/1918 03010G19KT 1 1/2SM RA BR OVC007
     FM182100 01017KT P6SM -RA BKN015
     FM190100 36012KT P6SM BKN011
     FM190600 36005KT 4SM BR BKN007
     FM191500 35011KT P6SM SKC=

USA.gov is the U.S. government's official web portal to all federal, state and local government web resources and services.